Time;durP1;ratioP1;P1;durP2;ratioP2;P2;SDS_P1;SDS_P2;PMS_P1;PMS_P2;Temp;Humidity;BMP_temperature;BMP_pressure;BME280_temperature;BME280_humidity;BME280_pressure;Samples;Min_cycle;Max_cycle;Signal;HPM_P1;HPM_P2
2023/01/03 00:01:43;;;;;;;14.00;10.98;;;;;;;12.06;61.55;102452.53;6181176;23;20104;-68
2023/01/03 00:04:10;;;;;;;13.07;9.98;;;;;;;12.00;61.25;102451.03;6181577;23;20013;-68
2023/01/03 00:06:46;;;;;;;16.27;10.57;;;;;;;11.98;61.29;102449.34;6181397;23;20021;-68
2023/01/03 00:09:15;;;;;;;15.15;9.93;;;;;;;11.95;61.42;102452.19;6181585;22;20328;-68
2023/01/03 00:14:32;;;;;;;12.98;9.48;;;;;;;11.95;61.24;102450.38;6181514;23;20013;-67
2023/01/03 00:17:00;;;;;;;11.63;9.43;;;;;;;11.97;61.49;102444.91;6181677;23;20092;-68
2023/01/03 00:19:31;;;;;;;13.95;9.15;;;;;;;11.97;61.35;102450.31;6181407;23;20101;-68
2023/01/03 00:21:58;;;;;;;12.40;8.20;;;;;;;11.97;61.11;102451.19;6181239;23;20087;-68
2023/01/03 00:24:24;;;;;;;15.48;8.15;;;;;;;11.96;61.20;102451.25;6181059;23;20017;-67
2023/01/03 00:26:51;;;;;;;14.13;8.35;;;;;;;11.91;60.96;102458.69;6181103;23;20009;-68
2023/01/03 00:29:18;;;;;;;14.93;7.68;;;;;;;11.86;60.98;102452.66;6181721;23;20020;-68
2023/01/03 00:31:45;;;;;;;12.50;7.35;;;;;;;11.83;60.92;102452.81;6181124;23;20082;-67
2023/01/03 00:34:11;;;;;;;12.25;8.35;;;;;;;11.77;61.11;102456.63;6181258;23;20090;-67
2023/01/03 00:36:38;;;;;;;9.55;6.95;;;;;;;11.73;60.82;102457.75;6181238;23;20067;-67
2023/01/03 00:39:05;;;;;;;13.75;7.53;;;;;;;11.68;60.71;102457.09;6181067;23;20093;-67
2023/01/03 00:41:33;;;;;;;10.75;8.00;;;;;;;11.63;60.38;102461.84;6181090;23;20090;-67
2023/01/03 00:43:59;;;;;;;12.40;7.05;;;;;;;11.58;60.57;102463.88;6181036;23;20108;-67
2023/01/03 00:46:26;;;;;;;11.60;7.07;;;;;;;11.54;60.29;102457.78;6181317;23;20025;-67
2023/01/03 00:48:53;;;;;;;11.70;6.90;;;;;;;11.51;60.38;102457.06;6181280;22;20092;-67
2023/01/03 00:51:23;;;;;;;13.13;6.70;;;;;;;11.49;60.12;102458.97;6181304;22;20066;-67
2023/01/03 00:53:53;;;;;;;9.35;6.47;;;;;;;11.46;60.03;102468.06;6181271;23;20070;-66
2023/01/03 00:56:23;;;;;;;10.90;6.65;;;;;;;11.42;60.29;102467.34;6181090;23;20099;-67
2023/01/03 00:58:50;;;;;;;12.98;6.68;;;;;;;11.37;60.01;102466.69;6181122;23;20092;-66
2023/01/03 01:01:18;;;;;;;23.50;6.47;;;;;;;11.31;59.58;102474.19;6180780;23;20074;-67
2023/01/03 01:03:48;;;;;;;7.93;6.07;;;;;;;11.20;59.72;102474.69;6180847;23;20013;-66
2023/01/03 01:06:24;;;;;;;8.93;5.95;;;;;;;11.12;59.34;102474.16;6181098;23;20017;-66
2023/01/03 01:08:52;;;;;;;8.23;6.20;;;;;;;11.02;59.31;102470.16;6182453;23;20020;-66
2023/01/03 01:11:19;;;;;;;8.18;5.97;;;;;;;10.93;59.14;102478.66;6182404;23;20018;-66
2023/01/03 01:13:47;;;;;;;7.22;5.57;;;;;;;10.83;59.21;102487.16;6182027;23;20093;-66
2023/01/03 01:16:17;;;;;;;10.93;6.32;;;;;;;10.76;59.14;102493.75;6182346;23;20508;-65
2023/01/03 01:18:46;;;;;;;7.72;6.15;;;;;;;10.71;59.20;102492.22;6182603;23;20013;-66
2023/01/03 01:21:16;;;;;;;16.75;6.35;;;;;;;10.60;59.13;102495.38;6182350;23;20024;-67
2023/01/03 01:23:44;;;;;;;10.10;5.78;;;;;;;10.47;58.87;102494.19;6182486;23;20017;-67
2023/01/03 01:26:15;;;;;;;8.85;5.88;;;;;;;10.37;58.87;102498.19;6182376;23;20021;-66
2023/01/03 01:28:42;;;;;;;8.93;6.07;;;;;;;10.29;58.71;102500.34;6182297;23;20024;-66
2023/01/03 01:31:12;;;;;;;9.45;6.72;;;;;;;10.25;59.05;102514.84;6182172;23;20104;-67
2023/01/03 01:33:39;;;;;;;8.77;5.82;;;;;;;10.17;58.75;102516.00;6182450;23;20017;-67
2023/01/03 01:36:07;;;;;;;8.38;6.30;;;;;;;10.11;58.74;102529.69;6182230;23;20024;-68
2023/01/03 01:38:34;;;;;;;7.85;5.95;;;;;;;10.06;58.72;102523.66;6182499;23;20017;-66
2023/01/03 01:41:01;;;;;;;7.28;5.70;;;;;;;10.00;58.75;102526.59;6182260;23;20020;-67
2023/01/03 01:46:24;;;;;;;9.02;6.10;;;;;;;9.83;58.48;102531.78;6182494;23;20385;-67
2023/01/03 01:48:57;;;;;;;8.88;5.93;;;;;;;9.77;58.95;102527.53;6182664;23;20036;-67
2023/01/03 01:51:28;;;;;;;11.43;5.78;;;;;;;9.74;58.84;102535.72;6182147;23;20021;-67
2023/01/03 01:53:59;;;;;;;9.40;6.05;;;;;;;9.73;59.05;102525.06;6182349;23;20017;-67
2023/01/03 01:56:32;;;;;;;7.57;5.70;;;;;;;9.74;59.36;102532.16;6182486;23;20021;-67
2023/01/03 01:58:59;;;;;;;8.80;5.80;;;;;;;9.76;59.13;102543.72;6182509;23;20045;-67
2023/01/03 02:01:26;;;;;;;14.18;6.20;;;;;;;9.77;59.18;102534.72;6181946;23;20013;-67
2023/01/03 02:04:00;;;;;;;8.95;5.82;;;;;;;9.78;59.41;102537.34;6182037;23;20018;-67
2023/01/03 02:06:28;;;;;;;10.80;6.03;;;;;;;9.79;59.33;102543.59;6182049;23;20402;-68
2023/01/03 02:08:55;;;;;;;9.10;6.43;;;;;;;9.79;59.39;102541.78;6182657;23;20013;-67
2023/01/03 02:15:34;;;;;;;11.98;6.53;;;;;;;9.79;59.36;102551.63;6033606;23;20098;-67
2023/01/03 02:18:16;;;;;;;9.57;6.13;;;;;;;9.75;59.20;102558.06;6033235;23;20023;-67
2023/01/03 02:21:15;;;;;;;12.70;6.25;;;;;;;9.66;59.28;102544.97;6143313;23;20439;-67
2023/01/03 02:23:48;;;;;;;9.63;6.25;;;;;;;9.57;59.14;102544.41;6181938;23;20436;-66
2023/01/03 02:26:35;;;;;;;8.70;5.95;;;;;;;9.50;59.14;102542.91;6181734;23;20068;-67
2023/01/03 02:29:12;;;;;;;9.23;5.80;;;;;;;9.47;59.08;102540.34;6182120;23;20017;-67
2023/01/03 02:31:51;;;;;;;10.32;6.20;;;;;;;9.43;58.97;102537.84;6182271;23;20512;-67
2023/01/03 02:34:41;;;;;;;10.85;6.40;;;;;;;9.34;58.86;102535.53;6155820;23;20028;-66
2023/01/03 02:37:21;;;;;;;13.15;5.70;;;;;;;9.28;59.09;102533.97;6156144;23;20035;-67
2023/01/03 02:39:56;;;;;;;9.50;6.00;;;;;;;9.23;58.96;102533.28;6181979;23;20101;-67
2023/01/03 02:43:06;;;;;;;8.90;5.50;;;;;;;9.20;58.86;102533.38;6155579;23;20072;-66
2023/01/03 02:45:58;;;;;;;7.55;5.90;;;;;;;9.16;58.89;102527.28;6061577;23;20026;-67
2023/01/03 02:48:40;;;;;;;10.60;6.03;;;;;;;9.09;59.21;102536.47;6062425;23;20102;-67
2023/01/03 02:51:14;;;;;;;11.15;6.38;;;;;;;9.04;59.04;102538.47;6152084;23;20014;-67
2023/01/03 02:53:46;;;;;;;8.85;6.22;;;;;;;8.99;58.92;102536.88;6181776;23;20018;-67
2023/01/03 02:56:27;;;;;;;11.10;6.68;;;;;;;8.90;58.76;102536.25;6181897;23;20439;-67
2023/01/03 02:58:59;;;;;;;8.40;5.95;;;;;;;8.82;58.88;102537.47;6182294;22;20116;-67
2023/01/03 03:01:28;;;;;;;10.55;6.22;;;;;;;8.75;58.88;102530.59;6181661;23;20025;-67
2023/01/03 03:03:56;;;;;;;8.00;5.85;;;;;;;8.69;58.81;102526.34;6181766;23;20017;-67
2023/01/03 03:06:31;;;;;;;8.38;6.05;;;;;;;8.65;58.80;102530.06;6181562;23;20469;-67
2023/01/03 03:08:58;;;;;;;8.88;6.07;;;;;;;8.59;58.92;102531.16;6181866;23;20100;-66
2023/01/03 03:14:22;;;;;;;11.00;7.78;;;;;;;8.55;58.90;102531.31;6181906;23;20017;-68
2023/01/03 03:16:52;;;;;;;11.23;6.68;;;;;;;8.55;58.98;102529.53;6155456;23;20457;-67
2023/01/03 03:25:30;;;;;;;12.27;7.35;;;;;;;8.56;59.19;102520.56;6181817;23;20396;-67
2023/01/03 03:30:52;;;;;;;13.15;8.07;;;;;;;8.54;58.97;102526.91;6182853;23;20343;-66
2023/01/03 03:33:22;;;;;;;12.38;7.72;;;;;;;8.54;59.09;102535.81;6190936;23;20431;-67
2023/01/03 03:36:35;;;;;;;13.43;8.25;;;;;;;8.56;59.34;102535.75;6181888;23;20027;-67
2023/01/03 03:39:02;;;;;;;12.50;7.78;;;;;;;8.59;59.12;102538.31;6175254;23;20070;-66
2023/01/03 03:47:35;;;;;;;11.20;7.75;;;;;;;8.59;59.20;102536.50;6181211;23;20385;-67
2023/01/03 03:50:09;;;;;;;12.18;7.38;;;;;;;8.61;59.24;102536.47;6181163;23;20447;-68
2023/01/03 03:52:39;;;;;;;11.63;7.65;;;;;;;8.60;59.27;102540.94;6181646;23;20021;-67
2023/01/03 03:55:13;;;;;;;14.05;8.82;;;;;;;8.61;59.14;102539.13;6155254;23;20397;-68
2023/01/03 03:57:53;;;;;;;14.83;8.13;;;;;;;8.55;59.08;102537.56;6181950;23;20096;-67
2023/01/03 04:00:24;;;;;;;12.65;8.45;;;;;;;8.49;59.24;102550.28;6182257;23;20324;-67
2023/01/03 04:02:52;;;;;;;12.82;7.88;;;;;;;8.45;59.40;102546.84;6181136;23;20028;-68
2023/01/03 04:05:22;;;;;;;14.23;7.93;;;;;;;8.40;59.27;102540.78;6181140;23;20013;-67
2023/01/03 04:07:49;;;;;;;12.68;7.50;;;;;;;8.40;59.39;102537.22;6181538;23;20021;-68
2023/01/03 04:10:19;;;;;;;11.85;8.18;;;;;;;8.41;59.49;102538.97;6181414;23;20020;-68
2023/01/03 04:12:50;;;;;;;13.65;7.50;;;;;;;8.43;59.38;102542.47;6181179;23;20013;-67
2023/01/03 04:15:18;;;;;;;13.30;8.10;;;;;;;8.44;59.55;102552.25;6181677;23;20021;-68
2023/01/03 04:17:45;;;;;;;9.55;7.30;;;;;;;8.46;59.54;102548.59;6154988;23;20104;-68
2023/01/03 04:20:12;;;;;;;12.63;7.63;;;;;;;8.49;59.45;102555.63;6181675;23;20335;-67
2023/01/03 04:22:39;;;;;;;12.02;7.15;;;;;;;8.51;59.40;102553.78;6181135;23;20013;-68
2023/01/03 04:25:07;;;;;;;15.98;7.95;;;;;;;8.50;59.59;102552.91;6181274;23;20023;-67
2023/01/03 04:27:33;;;;;;;12.63;7.40;;;;;;;8.51;59.46;102553.78;6181194;23;20108;-68
2023/01/03 04:30:00;;;;;;;11.25;7.03;;;;;;;8.50;59.52;102555.59;6181255;23;20021;-67
2023/01/03 04:32:27;;;;;;;14.23;7.68;;;;;;;8.52;59.39;102553.72;6181054;23;20013;-68
2023/01/03 04:34:53;;;;;;;10.93;7.07;;;;;;;8.52;59.36;102561.75;6181671;23;20020;-68
2023/01/03 04:37:20;;;;;;;12.25;7.55;;;;;;;8.52;59.38;102552.84;6180974;23;20021;-67
2023/01/03 04:39:46;;;;;;;11.23;8.00;;;;;;;8.49;59.28;102555.63;6181523;23;20447;-68
2023/01/03 04:44:58;;;;;;;9.25;6.50;;;;;;;8.40;59.45;102561.31;6182157;23;20521;-67
2023/01/03 04:47:25;;;;;;;12.80;7.80;;;;;;;8.39;59.24;102564.91;6156662;23;20032;-69
2023/01/03 04:49:51;;;;;;;10.82;6.95;;;;;;;8.36;59.36;102570.38;6182628;23;20071;-67
2023/01/03 04:52:18;;;;;;;12.23;7.72;;;;;;;8.35;59.32;102568.63;6182257;23;20099;-67
2023/01/03 04:54:45;;;;;;;10.35;7.43;;;;;;;8.34;59.47;102566.88;6156423;23;20020;-67
2023/01/03 04:57:11;;;;;;;10.57;8.00;;;;;;;8.32;59.26;102563.34;6182421;23;20021;-67
2023/01/03 04:59:38;;;;;;;14.32;7.15;;;;;;;8.28;59.46;102568.81;6182466;23;20040;-67
2023/01/03 05:02:04;;;;;;;11.25;7.43;;;;;;;8.27;59.46;102561.72;6182137;23;20017;-67
2023/01/03 05:04:31;;;;;;;16.05;7.93;;;;;;;8.22;59.42;102554.75;6182282;23;20013;-67
2023/01/03 05:06:58;;;;;;;14.98;8.13;;;;;;;8.19;59.54;102552.19;6156023;23;20025;-67
2023/01/03 05:09:27;;;;;;;15.65;7.82;;;;;;;8.18;59.53;102547.75;6156387;23;20047;-68
2023/01/03 05:11:55;;;;;;;12.68;8.02;;;;;;;8.15;59.61;102548.72;6181997;23;20013;-66
2023/01/03 05:14:21;;;;;;;15.38;7.65;;;;;;;8.17;59.83;102546.84;6182585;23;20079;-67
2023/01/03 05:16:48;;;;;;;10.70;7.78;;;;;;;8.16;59.81;102546.91;6182800;23;20390;-67
2023/01/03 05:19:15;;;;;;;15.05;8.48;;;;;;;8.17;59.86;102554.88;6182386;23;20017;-67
2023/01/03 05:25:48;;;;;;;13.40;7.93;;;;;;;8.11;59.93;102549.75;6182355;23;20447;-66
2023/01/03 05:27:22;;;;;;;11.63;7.75;;;;;;;8.10;60.00;102555.13;6182134;23;20024;-67
2023/01/03 05:29:51;;;;;;;13.23;7.78;;;;;;;8.07;60.33;102553.44;6182061;23;20021;-66
2023/01/03 05:32:18;;;;;;;15.77;8.30;;;;;;;8.08;60.21;102548.97;6182446;23;20032;-67
2023/01/03 05:34:44;;;;;;;14.95;8.77;;;;;;;8.11;60.39;102546.19;6182237;23;20017;-67
2023/01/03 05:37:11;;;;;;;14.73;8.13;;;;;;;8.15;60.51;102551.38;6182287;23;20370;-68
2023/01/03 05:39:38;;;;;;;13.30;8.73;;;;;;;8.17;60.46;102546.84;6182278;23;20574;-67
2023/01/03 05:42:04;;;;;;;14.60;8.63;;;;;;;8.22;60.50;102544.94;6181610;23;20017;-67
2023/01/03 05:44:32;;;;;;;15.95;8.70;;;;;;;8.29;60.47;102534.88;6182003;22;20013;-68
2023/01/03 05:47:01;;;;;;;16.45;9.02;;;;;;;8.33;60.53;102530.28;6182086;23;20013;-68
2023/01/03 05:49:28;;;;;;;16.45;8.88;;;;;;;8.35;60.57;102533.81;6181927;23;20028;-68
2023/01/03 05:51:54;;;;;;;13.07;8.07;;;;;;;8.35;60.65;102536.50;6181992;23;20195;-68
2023/01/03 05:54:21;;;;;;;14.60;7.95;;;;;;;8.37;60.81;102545.34;6181594;23;20021;-67
2023/01/03 05:56:49;;;;;;;15.05;8.25;;;;;;;8.39;60.96;102541.69;6182155;23;20371;-67
2023/01/03 05:59:15;;;;;;;16.10;8.13;;;;;;;8.41;60.62;102536.28;6156116;23;20013;-67
2023/01/03 06:01:42;;;;;;;15.13;8.23;;;;;;;8.43;60.72;102532.63;6181673;23;20066;-67
2023/01/03 06:04:09;;;;;;;14.50;8.57;;;;;;;8.43;60.69;102537.97;6182043;23;20025;-67
2023/01/03 06:06:36;;;;;;;18.02;8.65;;;;;;;8.43;60.69;102535.31;6181879;23;20058;-67
2023/01/03 06:09:03;;;;;;;13.35;7.85;;;;;;;8.45;60.63;102540.59;6182007;23;20055;-67
2023/01/03 06:11:29;;;;;;;14.77;8.63;;;;;;;8.46;60.70;102529.84;6182212;23;20023;-68
2023/01/03 06:13:56;;;;;;;13.40;8.00;;;;;;;8.47;60.77;102530.72;6181868;23;20017;-67
2023/01/03 06:19:08;;;;;;;15.73;8.15;;;;;;;8.39;60.68;102520.28;6182216;23;20092;-67
2023/01/03 06:21:35;;;;;;;17.17;8.77;;;;;;;8.35;60.74;102521.31;6181770;23;20037;-68
2023/01/03 06:24:03;;;;;;;12.73;7.82;;;;;;;8.35;60.57;102517.78;6155766;23;20017;-68
2023/01/03 06:26:29;;;;;;;15.85;8.48;;;;;;;8.34;60.83;102522.25;6181808;23;20021;-68
2023/01/03 06:28:56;;;;;;;11.20;7.78;;;;;;;8.37;60.92;102523.94;6182013;23;20072;-67
2023/01/03 06:31:22;;;;;;;11.50;8.13;;;;;;;8.39;60.74;102527.44;6182050;23;20048;-67
2023/01/03 06:33:49;;;;;;;13.48;7.55;;;;;;;8.40;60.80;102526.50;6181838;23;20017;-67
2023/01/03 06:36:19;;;;;;;14.32;7.55;;;;;;;8.41;60.89;102520.22;6181667;23;20045;-67
2023/01/03 06:38:46;;;;;;;11.02;7.20;;;;;;;8.36;60.92;102512.38;6181988;23;20033;-67
2023/01/03 06:41:13;;;;;;;12.43;7.72;;;;;;;8.34;60.85;102518.69;6182048;23;20017;-68
2023/01/03 06:43:40;;;;;;;16.00;8.57;;;;;;;8.31;60.74;102516.09;6181560;23;20092;-67
2023/01/03 06:54:32;;;;;;;13.50;7.90;;;;;;;8.26;61.01;102514.44;6155189;23;20021;-67
2023/01/03 06:56:58;;;;;;;15.02;8.65;;;;;;;8.27;61.29;102508.16;6181765;23;20071;-66
2023/01/03 06:59:25;;;;;;;14.32;8.38;;;;;;;8.29;61.45;102505.44;6155311;23;20025;-66
2023/01/03 07:01:52;;;;;;;15.80;8.80;;;;;;;8.34;61.51;102510.66;6181347;23;20017;-66
2023/01/03 07:04:21;;;;;;;13.77;8.68;;;;;;;8.37;61.69;102516.78;6181500;23;20017;-66
2023/01/03 07:06:48;;;;;;;16.60;8.75;;;;;;;8.42;61.83;102506.78;6155600;23;20025;-66
2023/01/03 07:09:15;;;;;;;15.20;8.90;;;;;;;8.47;61.85;102510.19;6181641;23;20407;-65
2023/01/03 07:11:42;;;;;;;12.05;8.52;;;;;;;8.52;61.85;102520.72;6181315;23;20021;-66
2023/01/03 07:14:10;;;;;;;13.20;8.65;;;;;;;8.56;61.88;102522.34;6181428;23;20047;-67
2023/01/03 07:16:40;;;;;;;15.25;8.93;;;;;;;8.58;61.86;102523.19;6181927;23;20041;-67
2023/01/03 07:19:10;;;;;;;16.92;9.20;;;;;;;8.59;62.05;102519.56;6155147;23;20043;-68
2023/01/03 07:21:37;;;;;;;13.32;7.68;;;;;;;8.61;62.09;102517.72;6181348;23;20389;-66
2023/01/03 07:24:05;;;;;;;12.90;8.55;;;;;;;8.61;61.99;102525.75;6181668;23;20454;-65
2023/01/03 07:26:33;;;;;;;15.43;9.07;;;;;;;8.61;62.11;102515.03;6181692;23;20095;-66
2023/01/03 07:29:04;;;;;;;16.10;9.07;;;;;;;8.61;61.94;102517.72;6181582;22;20017;-64
2023/01/03 07:31:37;;;;;;;14.25;9.45;;;;;;;8.64;62.33;102508.69;6181946;23;20009;-66
2023/01/03 07:34:04;;;;;;;16.33;9.60;;;;;;;8.67;62.40;102503.22;6182123;23;20039;-66
2023/01/03 07:36:30;;;;;;;15.23;9.73;;;;;;;8.69;62.54;102504.03;6182053;23;20059;-65
2023/01/03 07:38:57;;;;;;;14.57;9.70;;;;;;;8.72;62.49;102501.25;6182081;23;20009;-66
2023/01/03 07:43:35;;;;;;;17.27;10.25;;;;;;;8.74;62.41;102505.63;6181719;23;20059;-65
2023/01/03 07:44:10;;;;;;;14.80;10.20;;;;;;;8.76;62.45;102509.13;6181585;23;20017;-65
2023/01/03 07:46:36;;;;;;;15.85;9.18;;;;;;;8.79;62.52;102521.50;6181840;23;20025;-66
2023/01/03 07:49:03;;;;;;;15.80;9.10;;;;;;;8.82;62.75;102526.75;6181820;22;20020;-66
2023/01/03 07:51:37;;;;;;;14.82;9.00;;;;;;;8.89;62.60;102533.63;6181505;23;20024;-67
2023/01/03 07:54:03;;;;;;;15.07;9.68;;;;;;;8.96;62.91;102547.72;6155234;23;20021;-66
2023/01/03 07:56:30;;;;;;;16.02;9.30;;;;;;;9.01;62.76;102537.69;6181477;23;20092;-66
2023/01/03 07:58:56;;;;;;;14.15;8.88;;;;;;;9.06;62.72;102538.41;6181878;23;20066;-67
2023/01/03 08:01:24;;;;;;;12.05;8.82;;;;;;;9.12;63.04;102536.34;6155553;22;20398;-68
2023/01/03 08:03:51;;;;;;;14.32;9.05;;;;;;;9.18;62.83;102546.84;6181734;22;20013;-67
2023/01/03 08:06:20;;;;;;;14.07;8.93;;;;;;;9.22;62.98;102539.56;6181407;23;20435;-67
2023/01/03 08:14:17;;;;;;;12.95;8.93;;;;;;;9.38;62.74;102535.34;6181626;23;20020;-67
2023/01/03 08:16:51;;;;;;;13.85;8.95;;;;;;;9.44;62.85;102545.84;6181157;23;20380;-67
2023/01/03 08:19:18;;;;;;;16.80;9.48;;;;;;;9.50;62.84;102542.03;6155486;22;20013;-67
2023/01/03 08:21:45;;;;;;;12.93;9.07;;;;;;;9.54;63.14;102538.31;6181505;23;20013;-68
2023/01/03 08:24:11;;;;;;;15.88;9.35;;;;;;;9.60;63.05;102545.22;6154585;23;20362;-68
2023/01/03 08:26:38;;;;;;;19.75;11.57;;;;;;;9.64;63.07;102549.53;6181619;23;20043;-68
2023/01/03 08:29:04;;;;;;;15.88;9.93;;;;;;;9.67;63.06;102557.50;6181194;23;20017;-68
2023/01/03 08:31:33;;;;;;;18.13;9.43;;;;;;;9.69;62.94;102550.25;6181213;23;20013;-68
2023/01/03 08:34:02;;;;;;;17.52;9.88;;;;;;;9.73;63.28;102554.56;6181061;23;20017;-67
2023/01/03 08:36:47;;;;;;;17.27;9.47;;;;;;;9.76;63.17;102552.63;6181309;22;20017;-68
2023/01/03 08:39:23;;;;;;;16.75;9.13;;;;;;;9.79;63.15;102559.69;6181167;22;20016;-68
2023/01/03 08:41:53;;;;;;;;;;;;;;;9.79;63.00;102560.56;6154983;23;20351;-68
2023/01/03 08:44:19;;;;;;;12.10;8.20;;;;;;;9.82;62.82;102560.44;6180803;22;19965;-67
2023/01/03 08:46:50;;;;;;;18.10;9.45;;;;;;;9.85;63.07;102571.03;6181272;23;20044;-68
2023/01/03 08:49:18;;;;;;;14.50;9.05;;;;;;;9.90;63.12;102572.66;6181453;22;20466;-68
2023/01/03 08:51:45;;;;;;;16.48;9.35;;;;;;;9.93;63.19;102578.78;6180623;23;20168;-69
2023/01/03 08:54:11;;;;;;;13.05;9.70;;;;;;;9.98;63.31;102578.59;6180900;22;20017;-69
2023/01/03 08:56:39;;;;;;;14.85;10.45;;;;;;;10.05;63.25;102582.75;6181120;23;20033;-68
2023/01/03 08:59:06;;;;;;;15.40;8.68;;;;;;;10.09;63.35;102582.56;6181170;22;20010;-68
2023/01/03 09:01:32;;;;;;;13.45;9.30;;;;;;;10.15;63.35;102584.13;6180714;23;20017;-69
2023/01/03 09:03:59;;;;;;;18.33;10.40;;;;;;;10.18;63.18;102578.63;6154820;23;20017;-69
2023/01/03 09:06:26;;;;;;;15.63;10.43;;;;;;;10.24;63.26;102578.41;6180448;22;20468;-68
2023/01/03 09:08:52;;;;;;;16.05;10.25;;;;;;;10.30;63.53;102582.66;6180601;23;20075;-69
2023/01/03 09:11:19;;;;;;;17.17;10.38;;;;;;;10.34;63.57;102581.56;6180959;23;20044;-67
2023/01/03 09:13:46;;;;;;;16.52;9.98;;;;;;;10.39;63.58;102585.81;6180727;23;20028;-67
2023/01/03 09:16:15;;;;;;;17.05;10.25;;;;;;;10.45;63.66;102582.03;6180852;23;20096;-68
2023/01/03 09:18:42;;;;;;;17.98;10.77;;;;;;;10.50;63.66;102585.38;6153940;23;20021;-68
2023/01/03 09:21:08;;;;;;;15.95;10.57;;;;;;;10.56;63.56;102586.94;6177949;23;20390;-69
2023/01/03 09:23:35;;;;;;;16.83;10.88;;;;;;;10.59;63.52;102593.03;6151906;23;20013;-68
2023/01/03 09:26:03;;;;;;;14.55;10.20;;;;;;;10.63;63.64;102591.97;6178195;23;20017;-68
2023/01/03 09:28:29;;;;;;;17.20;9.73;;;;;;;10.68;63.44;102595.34;6178979;23;20108;-67
2023/01/03 09:30:56;;;;;;;15.20;10.25;;;;;;;10.71;63.41;102589.81;6180250;23;20019;-68
2023/01/03 09:33:23;;;;;;;14.93;10.30;;;;;;;10.73;63.66;102593.31;6179545;23;20104;-67
2023/01/03 09:35:53;;;;;;;14.73;10.40;;;;;;;10.78;63.77;102594.00;6181250;23;20017;-67
2023/01/03 09:38:21;;;;;;;15.10;11.07;;;;;;;10.82;63.59;102597.41;6182207;23;20025;-68
2023/01/03 09:40:57;;;;;;;16.50;10.60;;;;;;;10.82;63.57;102592.91;6182254;23;20013;-69
2023/01/03 09:43:29;;;;;;;14.65;9.95;;;;;;;10.85;63.43;102597.28;6181153;22;20017;-68
2023/01/03 09:45:57;;;;;;;13.82;9.73;;;;;;;10.90;63.95;102594.38;6155573;23;20027;-68
2023/01/03 09:48:35;;;;;;;15.88;10.52;;;;;;;10.92;63.67;102589.81;6155353;23;20028;-68
2023/01/03 10:03:42;;;;;;;13.32;9.80;;;;;;;10.91;63.49;102596.13;6181992;23;20016;-68
2023/01/03 10:05:42;;;;;;;19.02;10.88;;;;;;;11.06;63.79;102590.94;6182087;23;20339;-68
2023/01/03 10:08:25;;;;;;;17.97;11.33;;;;;;;11.08;63.73;102589.06;6155661;23;20328;-68
2023/01/03 10:11:24;;;;;;;18.90;10.57;;;;;;;11.09;64.00;102584.53;6181992;23;20088;-68
2023/01/03 10:14:04;;;;;;;18.30;10.20;;;;;;;11.12;63.86;102584.41;6181820;23;20010;-68
2023/01/03 10:16:37;;;;;;;16.45;11.13;;;;;;;11.17;63.67;102592.28;6182147;23;20040;-69
2023/01/03 10:19:18;;;;;;;16.83;10.85;;;;;;;11.20;63.70;102590.34;6156305;22;20045;-69
2023/01/03 10:21:50;;;;;;;18.17;10.55;;;;;;;11.24;63.93;102581.19;6155640;23;20052;-68
2023/01/03 10:24:23;;;;;;;17.40;11.20;;;;;;;11.29;63.99;102583.66;6182151;23;20096;-68
2023/01/03 10:26:54;;;;;;;16.90;10.82;;;;;;;11.32;63.66;102581.69;6191656;23;20454;-68
2023/01/03 10:29:20;;;;;;;15.85;10.82;;;;;;;11.35;63.70;102583.38;6182499;23;20100;-67
2023/01/03 10:32:14;;;;;;;17.67;10.88;;;;;;;11.38;63.97;102585.91;6181466;23;20088;-69
2023/01/03 10:34:41;;;;;;;14.10;9.15;;;;;;;11.42;63.76;102574.06;6181603;22;20051;-68
2023/01/03 10:37:16;;;;;;;13.43;9.38;;;;;;;11.44;64.01;102580.25;6182164;23;20019;-69
2023/01/03 10:39:43;;;;;;;20.02;10.15;;;;;;;11.48;63.83;102583.66;6181404;23;20015;-67
2023/01/03 10:42:18;;;;;;;19.13;10.15;;;;;;;11.50;63.81;102579.09;6181599;23;20347;-67
2023/01/03 10:45:20;;;;;;;14.15;10.30;;;;;;;11.52;64.04;102572.69;6182114;23;20040;-68
2023/01/03 10:47:58;;;;;;;15.70;9.50;;;;;;;11.55;63.83;102566.28;6213936;23;20024;-67
2023/01/03 10:50:29;;;;;;;17.45;9.80;;;;;;;11.58;63.83;102561.63;6184662;23;20028;-68
2023/01/03 10:53:04;;;;;;;18.30;9.38;;;;;;;11.60;63.94;102567.81;6181600;23;20018;-67
2023/01/03 10:55:34;;;;;;;12.02;8.93;;;;;;;11.64;63.88;102560.47;6181754;23;20396;-67
2023/01/03 10:58:12;;;;;;;14.65;8.68;;;;;;;11.66;63.76;102561.25;6181512;23;20020;-67
2023/01/03 11:00:39;;;;;;;14.02;8.48;;;;;;;11.68;63.69;102559.38;6182050;23;20036;-67
2023/01/03 11:03:16;;;;;;;15.63;8.77;;;;;;;11.68;63.59;102560.25;6181729;23;20040;-67
2023/01/03 11:05:48;;;;;;;13.90;8.18;;;;;;;11.74;63.95;102551.00;6181528;23;20019;-67
2023/01/03 11:08:22;;;;;;;12.98;8.43;;;;;;;11.76;64.01;102555.34;6181378;23;20048;-67
2023/01/03 11:10:53;;;;;;;16.10;8.55;;;;;;;11.81;63.99;102554.28;6155864;23;20062;-67
2023/01/03 11:13:26;;;;;;;13.70;8.13;;;;;;;11.85;64.02;102556.75;6155621;23;20009;-67
2023/01/03 11:15:55;;;;;;;13.90;8.88;;;;;;;11.89;64.03;102555.69;6181484;23;20024;-68
2023/01/03 11:18:22;;;;;;;12.80;8.07;;;;;;;11.93;63.95;102557.28;6181199;23;20339;-68
2023/01/03 11:21:07;;;;;;;12.43;7.93;;;;;;;11.99;63.86;102550.72;6181234;22;20025;-68
2023/01/03 11:24:01;;;;;;;12.85;7.35;;;;;;;12.05;63.84;102556.69;6181643;23;20392;-67
2023/01/03 11:26:42;;;;;;;13.43;7.93;;;;;;;12.08;63.84;102556.53;6181363;23;20013;-67
2023/01/03 11:29:48;;;;;;;11.45;7.15;;;;;;;12.12;64.02;102551.84;6181801;23;20044;-68
2023/01/03 11:32:39;;;;;;;10.50;7.18;;;;;;;12.18;63.91;102556.06;6181613;23;20063;-67
2023/01/03 11:35:26;;;;;;;8.93;6.47;;;;;;;12.20;63.77;102549.63;6181466;23;20088;-67
2023/01/03 11:38:21;;;;;;;9.55;6.45;;;;;;;12.23;63.66;102541.41;6181041;23;20028;-67
2023/01/03 11:40:57;;;;;;;13.52;6.70;;;;;;;12.26;63.90;102543.06;6181747;23;20017;-68
2023/01/03 11:44:01;;;;;;;10.68;6.55;;;;;;;12.29;64.05;102535.69;6181415;23;20085;-67
2023/01/03 11:46:59;;;;;;;10.45;6.07;;;;;;;12.34;64.00;102535.47;6155936;23;20501;-67
2023/01/03 11:49:51;;;;;;;14.00;7.25;;;;;;;12.36;63.58;102528.16;6181678;23;20021;-67
2023/01/03 11:52:28;;;;;;;9.63;6.13;;;;;;;12.40;63.67;102527.06;6180655;23;20025;-67
2023/01/03 11:55:32;;;;;;;12.20;7.45;;;;;;;12.41;63.98;102524.28;6181551;23;20020;-67
2023/01/03 11:58:25;;;;;;;9.77;7.00;;;;;;;12.44;63.85;102525.94;6180954;23;20458;-67
2023/01/03 12:01:10;;;;;;;12.60;7.13;;;;;;;12.46;63.78;102525.88;6181498;23;20032;-68
2023/01/03 12:03:58;;;;;;;12.68;5.88;;;;;;;12.48;63.79;102518.56;6181116;23;20013;-67
2023/01/03 12:07:02;;;;;;;10.63;6.65;;;;;;;12.50;63.83;102522.94;6181107;23;20042;-67
2023/01/03 12:09:56;;;;;;;8.98;6.20;;;;;;;12.52;63.38;102512.94;6133203;23;20075;-68
2023/01/03 12:12:47;;;;;;;10.18;5.97;;;;;;;12.53;63.37;102503.91;6181185;23;20024;-67
2023/01/03 12:15:25;;;;;;;9.40;6.22;;;;;;;12.56;63.69;102503.75;6155421;22;20027;-68
2023/01/03 12:17:59;;;;;;;11.10;6.78;;;;;;;12.59;63.48;102502.72;6180880;23;20378;-67
2023/01/03 12:20:33;;;;;;;8.75;6.32;;;;;;;12.61;63.36;102498.97;6181357;23;20097;-67
2023/01/03 12:23:26;;;;;;;9.60;6.57;;;;;;;12.62;63.53;102498.03;6180938;23;20020;-67
2023/01/03 12:25:58;;;;;;;9.85;6.40;;;;;;;12.65;63.46;102497.91;6181063;23;20048;-68
2023/01/03 12:28:33;;;;;;;11.77;6.53;;;;;;;12.66;63.12;102498.78;6181222;23;20059;-68
2023/01/03 12:31:29;;;;;;;14.43;6.60;;;;;;;12.66;63.18;102496.06;6181286;23;20072;-67
2023/01/03 12:34:25;;;;;;;11.05;6.47;;;;;;;12.66;63.25;102493.38;6177142;23;20063;-67
2023/01/03 12:37:10;;;;;;;12.02;6.70;;;;;;;12.65;63.22;102488.94;6181214;23;20021;-67
2023/01/03 12:40:00;;;;;;;9.77;6.75;;;;;;;12.65;62.92;102486.25;6180959;23;20024;-67
2023/01/03 12:42:42;;;;;;;9.57;6.85;;;;;;;12.64;63.08;102484.50;6181525;23;20021;-67
2023/01/03 12:45:35;;;;;;;12.80;8.18;;;;;;;12.63;63.19;102488.13;6181038;23;20013;-67
2023/01/03 12:48:10;;;;;;;11.88;7.30;;;;;;;12.62;62.76;102497.16;6180694;23;20017;-67